CheckWX is a tool to help pilots better visualize weather data.  It is not intended as a substitute for an official pre-flight weather briefing.

10:40:32 UTC

KPBF TAF
Pine Bluff Regional Grider Field Airport
Pine Bluff, Arkansas, USA
KPBF 170520Z 1706/1806 VRB05KT P6SM SKC FM171500 11007KT P6SM SKC

Sep-17@
06:00 UTC

Sep-17 @ 06:00 UTC

Sep-17@
15:00 UTC

Sep-17 @ 15:00 UTC

KPBF 170520Z 1706/1806 VRB05KT P6SM SKC
Wind
  • Variable at 5 KTS
Cloud Levels
  • Clear skies

Sep-17@
15:00 UTC

Sep-17 @ 15:00 UTC

Sep-18@
06:00 UTC

Sep-18 @ 06:00 UTC

FM171500 11007KT P6SM SKC

From

From Standard forecast or significant change

Wind
  • 110° at 7 KTS
Cloud Levels
  • Clear skies